sensor_id;sensor_type;location;lat;lon;timestamp;P1;durP1;ratioP1;P2;durP2;ratioP2
66567;SDS011;53422;49.296;6.900;2023-05-24T00:01:15;8.63;;;3.80;;
66567;SDS011;53422;49.296;6.900;2023-05-24T00:06:18;6.03;;;3.25;;
66567;SDS011;53422;49.296;6.900;2023-05-24T00:08:45;10.48;;;4.07;;
66567;SDS011;53422;49.296;6.900;2023-05-24T00:11:11;6.30;;;3.60;;
66567;SDS011;53422;49.296;6.900;2023-05-24T00:13:37;8.73;;;4.60;;
66567;SDS011;53422;49.296;6.900;2023-05-24T00:16:03;8.38;;;3.83;;
66567;SDS011;53422;49.296;6.900;2023-05-24T00:18:29;9.93;;;3.70;;
66567;SDS011;53422;49.296;6.900;2023-05-24T00:20:55;9.88;;;3.80;;
66567;SDS011;53422;49.296;6.900;2023-05-24T00:23:22;7.60;;;3.30;;
66567;SDS011;53422;49.296;6.900;2023-05-24T00:25:49;6.93;;;3.08;;
66567;SDS011;53422;49.296;6.900;2023-05-24T00:28:18;9.80;;;3.60;;
66567;SDS011;53422;49.296;6.900;2023-05-24T00:30:43;7.78;;;4.18;;
66567;SDS011;53422;49.296;6.900;2023-05-24T00:33:09;9.77;;;3.83;;
66567;SDS011;53422;49.296;6.900;2023-05-24T00:35:35;7.43;;;3.35;;
66567;SDS011;53422;49.296;6.900;2023-05-24T00:38:00;9.85;;;3.95;;
66567;SDS011;53422;49.296;6.900;2023-05-24T00:40:26;9.50;;;3.80;;
66567;SDS011;53422;49.296;6.900;2023-05-24T00:42:52;8.73;;;3.42;;
66567;SDS011;53422;49.296;6.900;2023-05-24T00:45:17;6.40;;;4.00;;
66567;SDS011;53422;49.296;6.900;2023-05-24T00:47:43;8.57;;;3.38;;
66567;SDS011;53422;49.296;6.900;2023-05-24T00:50:10;7.15;;;3.38;;
66567;SDS011;53422;49.296;6.900;2023-05-24T00:52:39;10.18;;;3.50;;
66567;SDS011;53422;49.296;6.900;2023-05-24T00:55:05;7.13;;;3.45;;
66567;SDS011;53422;49.296;6.900;2023-05-24T00:57:31;8.88;;;3.97;;
66567;SDS011;53422;49.296;6.900;2023-05-24T00:59:58;8.95;;;3.67;;
66567;SDS011;53422;49.296;6.900;2023-05-24T01:02:24;9.40;;;3.67;;
66567;SDS011;53422;49.296;6.900;2023-05-24T01:04:50;9.40;;;3.80;;
66567;SDS011;53422;49.296;6.900;2023-05-24T01:10:20;8.95;;;3.75;;
66567;SDS011;53422;49.296;6.900;2023-05-24T01:15:19;7.15;;;3.42;;
66567;SDS011;53422;49.296;6.900;2023-05-24T01:17:55;6.70;;;3.45;;
66567;SDS011;53422;49.296;6.900;2023-05-24T01:20:35;6.35;;;3.17;;
66567;SDS011;53422;49.296;6.900;2023-05-24T01:23:04;8.40;;;3.85;;
66567;SDS011;53422;49.296;6.900;2023-05-24T01:28:22;6.60;;;3.70;;
66567;SDS011;53422;49.296;6.900;2023-05-24T01:30:48;5.45;;;3.17;;
66567;SDS011;53422;49.296;6.900;2023-05-24T01:33:14;6.93;;;3.47;;
66567;SDS011;53422;49.296;6.900;2023-05-24T01:35:40;11.50;;;3.65;;
66567;SDS011;53422;49.296;6.900;2023-05-24T01:38:07;8.73;;;3.55;;
66567;SDS011;53422;49.296;6.900;2023-05-24T01:40:34;7.85;;;3.72;;
66567;SDS011;53422;49.296;6.900;2023-05-24T01:51:32;7.05;;;3.75;;
66567;SDS011;53422;49.296;6.900;2023-05-24T01:54:03;10.32;;;4.00;;
66567;SDS011;53422;49.296;6.900;2023-05-24T01:56:30;9.63;;;4.10;;
66567;SDS011;53422;49.296;6.900;2023-05-24T01:58:56;10.15;;;3.83;;
66567;SDS011;53422;49.296;6.900;2023-05-24T02:01:23;8.43;;;3.17;;
66567;SDS011;53422;49.296;6.900;2023-05-24T02:03:50;8.45;;;3.58;;
66567;SDS011;53422;49.296;6.900;2023-05-24T02:06:16;9.93;;;3.53;;
66567;SDS011;53422;49.296;6.900;2023-05-24T02:08:42;10.75;;;3.58;;
66567;SDS011;53422;49.296;6.900;2023-05-24T02:11:07;14.70;;;4.10;;
66567;SDS011;53422;49.296;6.900;2023-05-24T02:13:33;6.90;;;3.35;;
66567;SDS011;53422;49.296;6.900;2023-05-24T02:15:59;9.77;;;3.50;;
66567;SDS011;53422;49.296;6.900;2023-05-24T02:18:24;10.65;;;3.67;;
66567;SDS011;53422;49.296;6.900;2023-05-24T02:20:50;9.40;;;3.50;;
66567;SDS011;53422;49.296;6.900;2023-05-24T02:23:16;7.97;;;3.60;;
66567;SDS011;53422;49.296;6.900;2023-05-24T02:25:42;8.43;;;3.13;;
66567;SDS011;53422;49.296;6.900;2023-05-24T02:28:07;8.52;;;3.28;;
66567;SDS011;53422;49.296;6.900;2023-05-24T02:30:33;6.65;;;3.08;;
66567;SDS011;53422;49.296;6.900;2023-05-24T02:32:59;11.15;;;3.17;;
66567;SDS011;53422;49.296;6.900;2023-05-24T02:35:24;10.55;;;3.63;;
66567;SDS011;53422;49.296;6.900;2023-05-24T02:37:50;8.65;;;3.10;;
66567;SDS011;53422;49.296;6.900;2023-05-24T02:40:16;13.05;;;3.42;;
66567;SDS011;53422;49.296;6.900;2023-05-24T02:42:41;6.50;;;3.38;;
66567;SDS011;53422;49.296;6.900;2023-05-24T02:45:07;11.40;;;3.35;;
66567;SDS011;53422;49.296;6.900;2023-05-24T02:47:33;6.40;;;2.92;;
66567;SDS011;53422;49.296;6.900;2023-05-24T02:49:59;6.00;;;2.95;;
66567;SDS011;53422;49.296;6.900;2023-05-24T02:52:24;9.60;;;3.05;;
66567;SDS011;53422;49.296;6.900;2023-05-24T02:54:50;7.00;;;2.40;;
66567;SDS011;53422;49.296;6.900;2023-05-24T02:57:16;9.52;;;3.00;;
66567;SDS011;53422;49.296;6.900;2023-05-24T02:59:42;6.13;;;2.65;;
66567;SDS011;53422;49.296;6.900;2023-05-24T03:02:08;6.85;;;2.97;;
66567;SDS011;53422;49.296;6.900;2023-05-24T03:04:34;9.70;;;2.70;;
66567;SDS011;53422;49.296;6.900;2023-05-24T03:06:59;6.28;;;3.30;;
66567;SDS011;53422;49.296;6.900;2023-05-24T03:09:25;7.63;;;3.17;;
66567;SDS011;53422;49.296;6.900;2023-05-24T03:11:51;7.32;;;2.58;;
66567;SDS011;53422;49.296;6.900;2023-05-24T03:14:18;9.70;;;3.20;;
66567;SDS011;53422;49.296;6.900;2023-05-24T03:16:46;8.63;;;3.38;;
66567;SDS011;53422;49.296;6.900;2023-05-24T03:19:12;7.57;;;2.90;;
66567;SDS011;53422;49.296;6.900;2023-05-24T03:21:38;7.72;;;3.28;;
66567;SDS011;53422;49.296;6.900;2023-05-24T03:24:04;10.70;;;3.95;;
66567;SDS011;53422;49.296;6.900;2023-05-24T03:26:30;7.00;;;3.25;;
66567;SDS011;53422;49.296;6.900;2023-05-24T03:28:56;6.60;;;2.72;;
66567;SDS011;53422;49.296;6.900;2023-05-24T03:31:21;8.40;;;3.08;;
66567;SDS011;53422;49.296;6.900;2023-05-24T03:33:50;7.10;;;3.10;;
66567;SDS011;53422;49.296;6.900;2023-05-24T03:36:16;7.63;;;2.85;;
66567;SDS011;53422;49.296;6.900;2023-05-24T03:38:42;6.50;;;3.20;;
66567;SDS011;53422;49.296;6.900;2023-05-24T03:41:07;5.43;;;2.65;;
66567;SDS011;53422;49.296;6.900;2023-05-24T03:43:33;9.38;;;2.38;;
66567;SDS011;53422;49.296;6.900;2023-05-24T03:45:59;7.93;;;2.78;;
66567;SDS011;53422;49.296;6.900;2023-05-24T03:48:24;4.78;;;2.40;;
66567;SDS011;53422;49.296;6.900;2023-05-24T03:50:50;7.70;;;2.75;;
66567;SDS011;53422;49.296;6.900;2023-05-24T03:53:15;6.10;;;2.85;;
66567;SDS011;53422;49.296;6.900;2023-05-24T03:55:41;7.00;;;2.97;;
66567;SDS011;53422;49.296;6.900;2023-05-24T03:58:07;5.80;;;2.55;;
66567;SDS011;53422;49.296;6.900;2023-05-24T04:00:32;8.50;;;2.72;;
66567;SDS011;53422;49.296;6.900;2023-05-24T04:02:58;7.97;;;2.65;;
66567;SDS011;53422;49.296;6.900;2023-05-24T04:05:25;5.05;;;2.30;;
66567;SDS011;53422;49.296;6.900;2023-05-24T04:07:53;6.65;;;2.17;;
66567;SDS011;53422;49.296;6.900;2023-05-24T04:10:19;8.48;;;2.63;;
66567;SDS011;53422;49.296;6.900;2023-05-24T04:12:45;5.75;;;2.25;;
66567;SDS011;53422;49.296;6.900;2023-05-24T04:15:11;7.72;;;2.67;;
66567;SDS011;53422;49.296;6.900;2023-05-24T04:17:39;7.35;;;2.33;;
66567;SDS011;53422;49.296;6.900;2023-05-24T04:20:07;7.53;;;2.08;;
66567;SDS011;53422;49.296;6.900;2023-05-24T04:22:34;5.95;;;2.08;;
66567;SDS011;53422;49.296;6.900;2023-05-24T04:25:00;10.15;;;2.72;;
66567;SDS011;53422;49.296;6.900;2023-05-24T04:27:27;7.82;;;2.25;;
66567;SDS011;53422;49.296;6.900;2023-05-24T04:29:54;6.07;;;2.38;;
66567;SDS011;53422;49.296;6.900;2023-05-24T04:32:19;6.93;;;2.53;;
66567;SDS011;53422;49.296;6.900;2023-05-24T04:34:45;7.25;;;2.63;;
66567;SDS011;53422;49.296;6.900;2023-05-24T04:37:11;10.60;;;2.65;;
66567;SDS011;53422;49.296;6.900;2023-05-24T04:39:41;11.20;;;2.70;;
66567;SDS011;53422;49.296;6.900;2023-05-24T04:42:08;13.68;;;3.22;;
66567;SDS011;53422;49.296;6.900;2023-05-24T04:44:33;8.35;;;2.28;;
66567;SDS011;53422;49.296;6.900;2023-05-24T04:46:59;8.43;;;1.80;;
66567;SDS011;53422;49.296;6.900;2023-05-24T04:49:27;8.68;;;2.22;;
66567;SDS011;53422;49.296;6.900;2023-05-24T04:51:53;6.95;;;1.73;;
66567;SDS011;53422;49.296;6.900;2023-05-24T04:54:19;5.68;;;1.92;;
66567;SDS011;53422;49.296;6.900;2023-05-24T04:56:45;6.78;;;2.25;;
66567;SDS011;53422;49.296;6.900;2023-05-24T04:59:11;4.35;;;1.83;;
66567;SDS011;53422;49.296;6.900;2023-05-24T05:01:36;9.90;;;2.38;;
66567;SDS011;53422;49.296;6.900;2023-05-24T05:04:03;5.55;;;1.70;;
66567;SDS011;53422;49.296;6.900;2023-05-24T05:06:29;5.53;;;1.92;;
66567;SDS011;53422;49.296;6.900;2023-05-24T05:08:58;9.77;;;2.58;;
66567;SDS011;53422;49.296;6.900;2023-05-24T05:11:24;7.32;;;2.25;;
66567;SDS011;53422;49.296;6.900;2023-05-24T05:13:51;8.75;;;2.08;;
66567;SDS011;53422;49.296;6.900;2023-05-24T05:16:18;7.35;;;2.05;;
66567;SDS011;53422;49.296;6.900;2023-05-24T05:18:44;4.57;;;1.75;;
66567;SDS011;53422;49.296;6.900;2023-05-24T05:21:10;6.93;;;1.92;;
66567;SDS011;53422;49.296;6.900;2023-05-24T05:23:35;6.38;;;1.90;;
66567;SDS011;53422;49.296;6.900;2023-05-24T05:26:03;7.60;;;2.25;;
66567;SDS011;53422;49.296;6.900;2023-05-24T05:28:30;11.05;;;2.33;;
66567;SDS011;53422;49.296;6.900;2023-05-24T05:30:56;9.65;;;2.13;;
66567;SDS011;53422;49.296;6.900;2023-05-24T05:33:22;9.20;;;2.08;;
66567;SDS011;53422;49.296;6.900;2023-05-24T05:35:48;8.57;;;1.92;;
66567;SDS011;53422;49.296;6.900;2023-05-24T05:38:14;3.90;;;1.85;;
66567;SDS011;53422;49.296;6.900;2023-05-24T05:40:39;5.30;;;2.05;;
66567;SDS011;53422;49.296;6.900;2023-05-24T05:43:05;5.65;;;2.03;;
66567;SDS011;53422;49.296;6.900;2023-05-24T05:45:32;5.40;;;1.75;;
66567;SDS011;53422;49.296;6.900;2023-05-24T05:47:58;10.30;;;2.53;;
66567;SDS011;53422;49.296;6.900;2023-05-24T05:50:23;4.20;;;1.67;;
66567;SDS011;53422;49.296;6.900;2023-05-24T05:52:49;5.72;;;1.70;;
66567;SDS011;53422;49.296;6.900;2023-05-24T05:55:15;6.68;;;2.10;;
66567;SDS011;53422;49.296;6.900;2023-05-24T05:57:40;9.82;;;2.55;;
66567;SDS011;53422;49.296;6.900;2023-05-24T06:00:07;6.60;;;1.92;;
66567;SDS011;53422;49.296;6.900;2023-05-24T06:02:33;6.68;;;2.00;;
66567;SDS011;53422;49.296;6.900;2023-05-24T06:04:59;9.63;;;2.67;;
66567;SDS011;53422;49.296;6.900;2023-05-24T06:07:25;8.30;;;1.92;;
66567;SDS011;53422;49.296;6.900;2023-05-24T06:09:50;10.25;;;2.13;;
66567;SDS011;53422;49.296;6.900;2023-05-24T06:12:16;3.22;;;0.68;;
66567;SDS011;53422;49.296;6.900;2023-05-24T06:14:41;2.00;;;1.70;;
66567;SDS011;53422;49.296;6.900;2023-05-24T06:17:08;6.88;;;1.85;;
66567;SDS011;53422;49.296;6.900;2023-05-24T06:19:33;8.63;;;2.15;;
66567;SDS011;53422;49.296;6.900;2023-05-24T06:21:59;6.22;;;1.92;;
66567;SDS011;53422;49.296;6.900;2023-05-24T06:24:25;6.50;;;1.80;;
66567;SDS011;53422;49.296;6.900;2023-05-24T06:26:52;4.93;;;1.60;;
66567;SDS011;53422;49.296;6.900;2023-05-24T06:29:18;5.55;;;2.03;;
66567;SDS011;53422;49.296;6.900;2023-05-24T06:31:45;8.13;;;1.90;;
66567;SDS011;53422;49.296;6.900;2023-05-24T06:34:12;5.65;;;1.58;;
66567;SDS011;53422;49.296;6.900;2023-05-24T06:36:41;6.47;;;2.00;;
66567;SDS011;53422;49.296;6.900;2023-05-24T06:39:07;4.20;;;1.55;;
66567;SDS011;53422;49.296;6.900;2023-05-24T06:41:34;7.28;;;1.77;;
66567;SDS011;53422;49.296;6.900;2023-05-24T06:44:01;7.38;;;1.80;;
66567;SDS011;53422;49.296;6.900;2023-05-24T06:46:26;6.38;;;2.35;;
66567;SDS011;53422;49.296;6.900;2023-05-24T06:48:52;5.63;;;1.30;;
66567;SDS011;53422;49.296;6.900;2023-05-24T06:51:18;6.28;;;1.45;;
66567;SDS011;53422;49.296;6.900;2023-05-24T06:53:43;5.05;;;1.55;;
66567;SDS011;53422;49.296;6.900;2023-05-24T06:56:09;5.53;;;1.67;;
66567;SDS011;53422;49.296;6.900;2023-05-24T06:58:34;4.53;;;1.65;;
66567;SDS011;53422;49.296;6.900;2023-05-24T07:01:00;9.00;;;1.88;;
66567;SDS011;53422;49.296;6.900;2023-05-24T07:03:28;4.43;;;1.40;;
66567;SDS011;53422;49.296;6.900;2023-05-24T07:05:55;7.25;;;1.33;;
66567;SDS011;53422;49.296;6.900;2023-05-24T07:08:21;6.43;;;1.33;;
66567;SDS011;53422;49.296;6.900;2023-05-24T07:10:46;6.03;;;1.15;;
66567;SDS011;53422;49.296;6.900;2023-05-24T07:13:12;7.38;;;1.17;;
66567;SDS011;53422;49.296;6.900;2023-05-24T07:15:41;1.77;;;0.65;;
66567;SDS011;53422;49.296;6.900;2023-05-24T07:18:06;4.75;;;1.20;;
66567;SDS011;53422;49.296;6.900;2023-05-24T07:20:32;2.95;;;0.88;;
66567;SDS011;53422;49.296;6.900;2023-05-24T07:22:58;5.25;;;1.33;;
66567;SDS011;53422;49.296;6.900;2023-05-24T07:25:25;4.85;;;1.48;;
66567;SDS011;53422;49.296;6.900;2023-05-24T07:27:51;3.97;;;1.10;;
66567;SDS011;53422;49.296;6.900;2023-05-24T07:30:17;4.25;;;1.55;;
66567;SDS011;53422;49.296;6.900;2023-05-24T07:32:42;7.93;;;1.25;;
66567;SDS011;53422;49.296;6.900;2023-05-24T07:35:09;5.43;;;1.17;;
66567;SDS011;53422;49.296;6.900;2023-05-24T07:37:39;7.25;;;1.20;;
66567;SDS011;53422;49.296;6.900;2023-05-24T07:40:05;4.25;;;1.25;;
66567;SDS011;53422;49.296;6.900;2023-05-24T07:42:34;4.45;;;1.33;;
66567;SDS011;53422;49.296;6.900;2023-05-24T07:45:01;3.88;;;1.30;;
66567;SDS011;53422;49.296;6.900;2023-05-24T07:47:26;3.15;;;1.17;;
66567;SDS011;53422;49.296;6.900;2023-05-24T07:49:52;4.10;;;1.20;;
66567;SDS011;53422;49.296;6.900;2023-05-24T07:52:18;4.15;;;1.17;;
66567;SDS011;53422;49.296;6.900;2023-05-24T07:54:44;5.55;;;1.30;;
66567;SDS011;53422;49.296;6.900;2023-05-24T07:57:10;3.78;;;1.00;;
66567;SDS011;53422;49.296;6.900;2023-05-24T07:59:37;1.60;;;0.65;;
66567;SDS011;53422;49.296;6.900;2023-05-24T08:02:02;5.18;;;1.13;;
66567;SDS011;53422;49.296;6.900;2023-05-24T08:04:30;3.53;;;0.82;;
66567;SDS011;53422;49.296;6.900;2023-05-24T08:06:56;10.80;;;2.60;;
66567;SDS011;53422;49.296;6.900;2023-05-24T08:09:23;2.20;;;0.68;;
66567;SDS011;53422;49.296;6.900;2023-05-24T08:11:49;5.43;;;1.40;;
66567;SDS011;53422;49.296;6.900;2023-05-24T08:14:14;3.10;;;1.15;;
66567;SDS011;53422;49.296;6.900;2023-05-24T08:16:40;2.42;;;0.80;;
66567;SDS011;53422;49.296;6.900;2023-05-24T08:19:05;3.50;;;0.93;;
66567;SDS011;53422;49.296;6.900;2023-05-24T08:21:31;3.50;;;0.75;;
66567;SDS011;53422;49.296;6.900;2023-05-24T08:23:57;4.15;;;1.33;;
66567;SDS011;53422;49.296;6.900;2023-05-24T08:26:24;2.72;;;0.82;;
66567;SDS011;53422;49.296;6.900;2023-05-24T08:28:51;4.07;;;0.80;;
66567;SDS011;53422;49.296;6.900;2023-05-24T08:31:16;6.88;;;1.25;;
66567;SDS011;53422;49.296;6.900;2023-05-24T08:33:42;3.72;;;0.77;;
66567;SDS011;53422;49.296;6.900;2023-05-24T08:36:08;4.95;;;1.20;;
66567;SDS011;53422;49.296;6.900;2023-05-24T08:38:34;3.05;;;1.25;;
66567;SDS011;53422;49.296;6.900;2023-05-24T08:41:02;2.92;;;0.90;;
66567;SDS011;53422;49.296;6.900;2023-05-24T08:43:31;4.45;;;1.70;;
66567;SDS011;53422;49.296;6.900;2023-05-24T08:45:57;2.83;;;1.00;;
66567;SDS011;53422;49.296;6.900;2023-05-24T08:48:25;3.90;;;1.13;;
66567;SDS011;53422;49.296;6.900;2023-05-24T08:50:53;3.05;;;0.80;;
66567;SDS011;53422;49.296;6.900;2023-05-24T08:53:19;4.20;;;1.20;;
66567;SDS011;53422;49.296;6.900;2023-05-24T08:55:47;3.78;;;0.93;;
66567;SDS011;53422;49.296;6.900;2023-05-24T08:58:17;3.28;;;1.20;;
66567;SDS011;53422;49.296;6.900;2023-05-24T09:00:43;5.25;;;1.10;;
66567;SDS011;53422;49.296;6.900;2023-05-24T09:03:09;4.10;;;0.75;;
66567;SDS011;53422;49.296;6.900;2023-05-24T09:05:36;2.40;;;0.95;;
66567;SDS011;53422;49.296;6.900;2023-05-24T09:08:04;3.22;;;0.95;;
66567;SDS011;53422;49.296;6.900;2023-05-24T09:10:32;1.92;;;0.90;;
66567;SDS011;53422;49.296;6.900;2023-05-24T09:12:57;4.78;;;1.13;;
66567;SDS011;53422;49.296;6.900;2023-05-24T09:15:26;4.57;;;0.93;;
66567;SDS011;53422;49.296;6.900;2023-05-24T09:17:52;3.03;;;1.08;;
66567;SDS011;53422;49.296;6.900;2023-05-24T09:20:18;3.67;;;0.93;;
66567;SDS011;53422;49.296;6.900;2023-05-24T09:22:49;4.35;;;0.98;;
66567;SDS011;53422;49.296;6.900;2023-05-24T09:25:16;3.28;;;0.90;;
66567;SDS011;53422;49.296;6.900;2023-05-24T09:27:47;3.72;;;1.13;;
66567;SDS011;53422;49.296;6.900;2023-05-24T09:30:17;2.05;;;0.70;;
66567;SDS011;53422;49.296;6.900;2023-05-24T09:32:57;2.40;;;1.13;;
66567;SDS011;53422;49.296;6.900;2023-05-24T09:35:24;4.35;;;0.85;;
66567;SDS011;53422;49.296;6.900;2023-05-24T09:37:56;2.80;;;0.90;;
66567;SDS011;53422;49.296;6.900;2023-05-24T09:40:24;3.47;;;0.90;;
66567;SDS011;53422;49.296;6.900;2023-05-24T09:43:06;2.80;;;1.23;;
66567;SDS011;53422;49.296;6.900;2023-05-24T09:45:40;4.35;;;1.20;;
66567;SDS011;53422;49.296;6.900;2023-05-24T09:48:11;3.05;;;0.90;;
66567;SDS011;53422;49.296;6.900;2023-05-24T09:50:41;2.63;;;1.02;;
66567;SDS011;53422;49.296;6.900;2023-05-24T09:53:11;4.55;;;2.13;;
66567;SDS011;53422;49.296;6.900;2023-05-24T09:55:40;4.00;;;1.05;;
66567;SDS011;53422;49.296;6.900;2023-05-24T09:58:09;2.45;;;1.10;;
66567;SDS011;53422;49.296;6.900;2023-05-24T10:00:39;3.97;;;1.20;;
66567;SDS011;53422;49.296;6.900;2023-05-24T10:03:07;1.33;;;0.77;;
66567;SDS011;53422;49.296;6.900;2023-05-24T10:05:35;2.78;;;0.95;;
66567;SDS011;53422;49.296;6.900;2023-05-24T10:08:02;2.60;;;1.00;;
66567;SDS011;53422;49.296;6.900;2023-05-24T10:10:33;2.92;;;1.00;;
66567;SDS011;53422;49.296;6.900;2023-05-24T10:13:00;4.07;;;1.30;;
66567;SDS011;53422;49.296;6.900;2023-05-24T10:15:26;1.33;;;0.68;;
66567;SDS011;53422;49.296;6.900;2023-05-24T10:17:53;3.53;;;0.85;;
66567;SDS011;53422;49.296;6.900;2023-05-24T10:20:20;2.60;;;1.13;;
66567;SDS011;53422;49.296;6.900;2023-05-24T10:22:47;2.20;;;1.13;;
66567;SDS011;53422;49.296;6.900;2023-05-24T10:25:21;2.00;;;0.90;;
66567;SDS011;53422;49.296;6.900;2023-05-24T10:32:56;3.33;;;0.82;;
66567;SDS011;53422;49.296;6.900;2023-05-24T10:35:23;3.58;;;1.08;;
66567;SDS011;53422;49.296;6.900;2023-05-24T10:37:51;3.80;;;1.10;;
66567;SDS011;53422;49.296;6.900;2023-05-24T10:40:18;3.38;;;1.20;;
66567;SDS011;53422;49.296;6.900;2023-05-24T10:42:45;4.85;;;1.00;;
66567;SDS011;53422;49.296;6.900;2023-05-24T10:47:50;3.13;;;1.05;;
66567;SDS011;53422;49.296;6.900;2023-05-24T10:50:17;6.82;;;1.42;;
66567;SDS011;53422;49.296;6.900;2023-05-24T10:52:44;3.60;;;0.98;;
66567;SDS011;53422;49.296;6.900;2023-05-24T10:55:10;2.97;;;1.20;;
66567;SDS011;53422;49.296;6.900;2023-05-24T10:57:37;4.10;;;1.30;;
66567;SDS011;53422;49.296;6.900;2023-05-24T11:02:48;2.45;;;1.00;;
66567;SDS011;53422;49.296;6.900;2023-05-24T11:05:14;3.47;;;1.15;;
66567;SDS011;53422;49.296;6.900;2023-05-24T11:07:41;2.28;;;1.13;;
66567;SDS011;53422;49.296;6.900;2023-05-24T11:10:18;3.92;;;1.27;;
66567;SDS011;53422;49.296;6.900;2023-05-24T11:13:01;2.13;;;1.20;;
66567;SDS011;53422;49.296;6.900;2023-05-24T11:15:28;2.17;;;0.73;;
66567;SDS011;53422;49.296;6.900;2023-05-24T11:20:38;3.13;;;1.35;;
66567;SDS011;53422;49.296;6.900;2023-05-24T11:23:08;4.03;;;0.93;;
66567;SDS011;53422;49.296;6.900;2023-05-24T11:25:34;3.63;;;1.23;;
66567;SDS011;53422;49.296;6.900;2023-05-24T11:28:07;4.80;;;1.33;;
66567;SDS011;53422;49.296;6.900;2023-05-24T11:30:40;2.90;;;0.88;;
66567;SDS011;53422;49.296;6.900;2023-05-24T11:33:17;2.10;;;1.02;;
66567;SDS011;53422;49.296;6.900;2023-05-24T11:35:44;3.28;;;1.15;;
66567;SDS011;53422;49.296;6.900;2023-05-24T11:38:11;2.47;;;1.10;;
66567;SDS011;53422;49.296;6.900;2023-05-24T11:40:41;4.55;;;1.13;;
66567;SDS011;53422;49.296;6.900;2023-05-24T11:43:11;4.68;;;1.13;;
66567;SDS011;53422;49.296;6.900;2023-05-24T11:45:41;4.05;;;1.10;;
66567;SDS011;53422;49.296;6.900;2023-05-24T11:48:08;2.92;;;1.42;;
66567;SDS011;53422;49.296;6.900;2023-05-24T11:50:41;1.85;;;1.17;;
66567;SDS011;53422;49.296;6.900;2023-05-24T11:53:08;2.58;;;1.10;;
66567;SDS011;53422;49.296;6.900;2023-05-24T11:55:39;3.92;;;0.82;;
66567;SDS011;53422;49.296;6.900;2023-05-24T11:58:24;2.90;;;1.10;;
66567;SDS011;53422;49.296;6.900;2023-05-24T12:00:56;10.18;;;1.33;;
66567;SDS011;53422;49.296;6.900;2023-05-24T12:03:22;3.22;;;1.02;;
66567;SDS011;53422;49.296;6.900;2023-05-24T12:05:48;3.30;;;1.05;;
66567;SDS011;53422;49.296;6.900;2023-05-24T12:08:13;3.58;;;1.23;;
66567;SDS011;53422;49.296;6.900;2023-05-24T12:10:42;3.28;;;1.40;;
66567;SDS011;53422;49.296;6.900;2023-05-24T12:13:21;2.05;;;1.02;;
66567;SDS011;53422;49.296;6.900;2023-05-24T12:15:49;4.55;;;1.48;;
66567;SDS011;53422;49.296;6.900;2023-05-24T12:18:20;3.88;;;1.17;;
66567;SDS011;53422;49.296;6.900;2023-05-24T12:20:49;1.48;;;0.73;;
66567;SDS011;53422;49.296;6.900;2023-05-24T12:23:19;2.88;;;1.13;;
66567;SDS011;53422;49.296;6.900;2023-05-24T12:25:49;2.72;;;1.23;;
66567;SDS011;53422;49.296;6.900;2023-05-24T12:28:18;4.35;;;1.33;;
66567;SDS011;53422;49.296;6.900;2023-05-24T12:30:47;3.35;;;1.38;;
66567;SDS011;53422;49.296;6.900;2023-05-24T12:33:13;2.90;;;1.20;;
66567;SDS011;53422;49.296;6.900;2023-05-24T12:35:42;2.33;;;1.45;;
66567;SDS011;53422;49.296;6.900;2023-05-24T12:38:07;5.30;;;1.73;;
66567;SDS011;53422;49.296;6.900;2023-05-24T12:40:39;2.78;;;1.25;;
66567;SDS011;53422;49.296;6.900;2023-05-24T12:43:06;3.08;;;0.93;;
66567;SDS011;53422;49.296;6.900;2023-05-24T12:45:32;4.22;;;1.27;;
66567;SDS011;53422;49.296;6.900;2023-05-24T12:47:58;6.25;;;1.55;;
66567;SDS011;53422;49.296;6.900;2023-05-24T12:50:26;5.05;;;1.42;;
66567;SDS011;53422;49.296;6.900;2023-05-24T12:52:52;2.97;;;1.55;;
66567;SDS011;53422;49.296;6.900;2023-05-24T12:55:18;3.28;;;1.23;;
66567;SDS011;53422;49.296;6.900;2023-05-24T12:57:46;3.38;;;1.42;;
66567;SDS011;53422;49.296;6.900;2023-05-24T13:00:18;6.43;;;1.98;;
66567;SDS011;53422;49.296;6.900;2023-05-24T13:02:45;3.33;;;1.55;;
66567;SDS011;53422;49.296;6.900;2023-05-24T13:05:10;5.65;;;1.42;;
66567;SDS011;53422;49.296;6.900;2023-05-24T13:07:37;3.40;;;1.85;;
66567;SDS011;53422;49.296;6.900;2023-05-24T13:10:03;5.32;;;2.58;;
66567;SDS011;53422;49.296;6.900;2023-05-24T13:12:33;5.20;;;1.00;;
66567;SDS011;53422;49.296;6.900;2023-05-24T13:14:59;2.78;;;1.17;;
66567;SDS011;53422;49.296;6.900;2023-05-24T13:17:25;3.95;;;1.38;;
66567;SDS011;53422;49.296;6.900;2023-05-24T13:19:51;4.45;;;2.20;;
66567;SDS011;53422;49.296;6.900;2023-05-24T13:22:18;4.30;;;1.45;;
66567;SDS011;53422;49.296;6.900;2023-05-24T13:24:44;4.47;;;1.52;;
66567;SDS011;53422;49.296;6.900;2023-05-24T13:27:10;5.20;;;1.88;;
66567;SDS011;53422;49.296;6.900;2023-05-24T13:29:36;3.78;;;1.52;;
66567;SDS011;53422;49.296;6.900;2023-05-24T13:32:02;3.47;;;1.42;;
66567;SDS011;53422;49.296;6.900;2023-05-24T13:34:27;5.72;;;1.60;;
66567;SDS011;53422;49.296;6.900;2023-05-24T13:36:53;3.33;;;1.10;;
66567;SDS011;53422;49.296;6.900;2023-05-24T13:39:19;5.20;;;1.60;;
66567;SDS011;53422;49.296;6.900;2023-05-24T13:41:45;5.72;;;1.73;;
66567;SDS011;53422;49.296;6.900;2023-05-24T13:44:12;4.80;;;1.77;;
66567;SDS011;53422;49.296;6.900;2023-05-24T13:46:39;3.58;;;1.25;;
66567;SDS011;53422;49.296;6.900;2023-05-24T13:49:05;3.72;;;1.70;;
66567;SDS011;53422;49.296;6.900;2023-05-24T13:51:33;4.55;;;1.90;;
66567;SDS011;53422;49.296;6.900;2023-05-24T13:53:59;8.10;;;2.00;;
66567;SDS011;53422;49.296;6.900;2023-05-24T13:56:27;6.72;;;1.90;;
66567;SDS011;53422;49.296;6.900;2023-05-24T13:58:58;4.72;;;1.85;;
66567;SDS011;53422;49.296;6.900;2023-05-24T14:01:27;6.10;;;2.03;;
66567;SDS011;53422;49.296;6.900;2023-05-24T14:03:53;9.02;;;1.95;;
66567;SDS011;53422;49.296;6.900;2023-05-24T14:06:19;4.03;;;1.77;;
66567;SDS011;53422;49.296;6.900;2023-05-24T14:08:46;5.70;;;1.77;;
66567;SDS011;53422;49.296;6.900;2023-05-24T14:11:12;4.05;;;1.65;;
66567;SDS011;53422;49.296;6.900;2023-05-24T14:13:41;6.50;;;1.95;;
66567;SDS011;53422;49.296;6.900;2023-05-24T14:16:07;4.35;;;1.90;;
66567;SDS011;53422;49.296;6.900;2023-05-24T14:18:34;6.38;;;1.98;;
66567;SDS011;53422;49.296;6.900;2023-05-24T14:21:00;7.65;;;2.20;;
66567;SDS011;53422;49.296;6.900;2023-05-24T14:23:26;8.88;;;1.92;;
66567;SDS011;53422;49.296;6.900;2023-05-24T14:25:54;7.22;;;1.77;;
66567;SDS011;53422;49.296;6.900;2023-05-24T14:28:20;4.93;;;2.10;;
66567;SDS011;53422;49.296;6.900;2023-05-24T14:30:46;10.05;;;2.53;;
66567;SDS011;53422;49.296;6.900;2023-05-24T14:33:11;6.43;;;2.65;;
66567;SDS011;53422;49.296;6.900;2023-05-24T14:35:37;4.70;;;2.38;;
66567;SDS011;53422;49.296;6.900;2023-05-24T14:38:07;5.28;;;2.53;;
66567;SDS011;53422;49.296;6.900;2023-05-24T14:40:34;7.05;;;2.80;;
66567;SDS011;53422;49.296;6.900;2023-05-24T14:43:01;7.35;;;2.65;;
66567;SDS011;53422;49.296;6.900;2023-05-24T14:45:28;11.45;;;2.25;;
66567;SDS011;53422;49.296;6.900;2023-05-24T14:47:53;4.63;;;2.20;;
66567;SDS011;53422;49.296;6.900;2023-05-24T14:50:19;4.97;;;2.25;;
66567;SDS011;53422;49.296;6.900;2023-05-24T14:52:45;10.23;;;2.40;;
66567;SDS011;53422;49.296;6.900;2023-05-24T14:55:11;7.78;;;2.60;;
66567;SDS011;53422;49.296;6.900;2023-05-24T14:57:38;7.53;;;2.53;;
66567;SDS011;53422;49.296;6.900;2023-05-24T15:00:04;6.18;;;2.50;;
66567;SDS011;53422;49.296;6.900;2023-05-24T15:02:30;6.88;;;2.33;;
66567;SDS011;53422;49.296;6.900;2023-05-24T15:04:58;5.68;;;2.42;;
66567;SDS011;53422;49.296;6.900;2023-05-24T15:07:24;6.93;;;2.47;;
66567;SDS011;53422;49.296;6.900;2023-05-24T15:09:50;4.90;;;2.08;;
66567;SDS011;53422;49.296;6.900;2023-05-24T15:12:15;5.18;;;1.95;;
66567;SDS011;53422;49.296;6.900;2023-05-24T15:14:41;6.00;;;2.53;;
66567;SDS011;53422;49.296;6.900;2023-05-24T15:17:07;6.57;;;2.15;;
66567;SDS011;53422;49.296;6.900;2023-05-24T15:19:32;5.70;;;2.20;;